Huntingdon, Pennsylvania
Current Conditions -  °F | °C
As of 10:53 AM on Saturday 22 Nov 2014 (Local Time) from KAOO Reporting Station
Overcast Overcast  
Wind Chill: 30°   Ceiling: 6500
Heat Index: 36°   Visibility: 10mi
Dew Point: 13°   Wind: 8mph
Humidity: 39%   Direction: 200°SSW
Pressure: 30.3"   Gusts: NA
Location:  40.48°N, 78.01°W
Report Text: KAOO 221553Z AUTO 20007KT 10SM OVC065 02/M11 A3030 RMK AO2 SLP282 T00221106
Loading
Personal Weather Stations






























Interactive Weather Map New forecast layout! Learn more

10-Day Weather Forecast

Advertisements
Track Severe Weather on mobile